»·PEaware :: DAL1914 KSLC-KBOI

DAL1914 :: KSLC-KBOI

FLIGHT INFORMATION

Flight Status: Arrived
Operator:
Delta Air Lines
More flights by this operator :: More flights under this callsign
Pilot: Joe P. (13940)
Aircraft: BOEING 737-700
(B737)
More flights by this aircraft type
Origin: KSLC Salt Lake City Intl
United States
Destination: KBOI Boise Air Terminal/Gowen
United States
More flights between these airports :: More routes between these airports
Route: CGULL1 TWF BROPH SPUUD3
File this flight plan on PilotEdge
Remarks: KTWF -PBN / A1B1C1D1L1O1S1 NAV / RNVD1E2A1 DOF / 180809 REG / N389DA RVR / 200 PER / C
Altitude:
(Current/Filed)
300ft
Speed:
(Current/Filed)
469kts
Departed: 08-Aug-18 05:59 PM
Arrived: 08-Aug-18 06:43 PM
Distance/Time
Traveled:
252nm/0:44
Distance/Time
To Go:
Arrived

Flight Plot

Page will automatically refresh every two minutes.

Flight plan parsing failed; only flown route is shown


Map Options




Map Legend


Flown Route
Filed Route
Departure Airport
Arrival Airport
Navaid (VOR, NDB)
Fix

Horizontal Profiles

Position Reports

Time Latitude Longitude Heading Altitude Ground
Speed
08-Aug-18 17:08 40.789075 -111.985536 130 4235ft 0kts
08-Aug-18 17:09 40.789075 -111.985536 130 4235ft 0kts
08-Aug-18 17:10 40.789075 -111.985536 130 4235ft 0kts
08-Aug-18 17:11 40.789075 -111.985536 130 4235ft 0kts
08-Aug-18 17:12 40.789075 -111.985536 130 4235ft 0kts
08-Aug-18 17:13 40.789075 -111.985536 130 4235ft 0kts
08-Aug-18 17:14 40.789075 -111.985536 130 4235ft 0kts
08-Aug-18 17:15 40.789075 -111.985536 130 4235ft 0kts
08-Aug-18 17:16 40.789075 -111.985536 130 4235ft 0kts
08-Aug-18 17:17 40.789075 -111.985536 130 4235ft 0kts
08-Aug-18 17:18 40.789075 -111.985536 130 4235ft 0kts
08-Aug-18 17:19 40.789075 -111.985536 130 4235ft 0kts
08-Aug-18 17:20 40.789075 -111.985536 130 4235ft 0kts
08-Aug-18 17:21 40.789075 -111.985536 130 4235ft 0kts
08-Aug-18 17:22 40.789075 -111.985536 130 4235ft 0kts
08-Aug-18 17:23 40.789075 -111.985536 130 4235ft 0kts
08-Aug-18 17:24 40.789075 -111.985536 130 4235ft 0kts
08-Aug-18 17:25 40.789075 -111.985536 130 4235ft 0kts
08-Aug-18 17:26 40.789075 -111.985536 130 4235ft 0kts
08-Aug-18 17:27 40.789075 -111.985536 130 4235ft 0kts
08-Aug-18 17:28 40.789075 -111.985536 130 4235ft 0kts
08-Aug-18 17:29 40.789075 -111.985536 130 4235ft 0kts
08-Aug-18 17:30 40.789075 -111.985536 130 4235ft 0kts
08-Aug-18 17:31 40.789075 -111.985536 130 4235ft 0kts
08-Aug-18 17:32 40.789075 -111.985536 130 4235ft 0kts
08-Aug-18 17:33 40.789075 -111.985536 130 4235ft 0kts
08-Aug-18 17:34 40.789075 -111.985536 130 4235ft 0kts
08-Aug-18 17:35 40.789075 -111.985536 130 4235ft 0kts
08-Aug-18 17:36 40.789075 -111.985536 130 4235ft 0kts
08-Aug-18 17:37 40.789075 -111.985536 130 4235ft 0kts
08-Aug-18 17:38 40.789075 -111.985536 130 4235ft 0kts
08-Aug-18 17:39 40.789075 -111.985536 130 4235ft 0kts
08-Aug-18 17:40 40.789075 -111.985536 130 4235ft 0kts
08-Aug-18 17:41 40.789075 -111.985536 130 4235ft 0kts
08-Aug-18 17:42 40.789075 -111.985536 130 4235ft 0kts
08-Aug-18 17:43 40.789075 -111.985536 130 4235ft 0kts
08-Aug-18 17:44 40.789075 -111.985536 130 4235ft 0kts
08-Aug-18 17:45 40.789075 -111.985536 130 4235ft 0kts
08-Aug-18 17:46 40.789184 -111.985701 132 4235ft 2kts
08-Aug-18 17:47 40.789679 -111.986135 198 4235ft 2kts
08-Aug-18 17:48 40.789827 -111.985926 238 4235ft 0kts
08-Aug-18 17:49 40.789827 -111.985926 238 4235ft 0kts
08-Aug-18 17:50 40.789827 -111.985926 238 4235ft 0kts
08-Aug-18 17:51 40.789827 -111.985926 238 4235ft 0kts
08-Aug-18 17:52 40.788441 -111.987524 234 4235ft 14kts
08-Aug-18 17:53 40.787754 -111.991790 272 4235ft 11kts
08-Aug-18 17:54 40.785389 -111.993541 175 4235ft 15kts
08-Aug-18 17:55 40.780529 -111.992966 171 4235ft 19kts
08-Aug-18 17:56 40.775511 -111.992333 181 4235ft 14kts
08-Aug-18 17:57 40.775060 -111.993101 266 4235ft 0kts
08-Aug-18 17:58 40.775081 -111.993457 278 4235ft 3kts
08-Aug-18 17:59 40.775327 -111.995114 294 4235ft 2kts
08-Aug-18 18:00 40.778164 -111.995912 355 4235ft 66kts
08-Aug-18 18:01 40.818981 -112.000816 338 5837ft 181kts
08-Aug-18 18:02 40.847240 -112.073284 292 7386ft 261kts
08-Aug-18 18:03 40.874473 -112.164994 292 9936ft 273kts
08-Aug-18 18:04 40.918249 -112.251671 313 12129ft 315kts
08-Aug-18 18:05 40.985384 -112.344488 313 13919ft 367kts
08-Aug-18 18:06 41.057013 -112.444088 313 16598ft 379kts
08-Aug-18 18:07 41.130617 -112.546876 313 19008ft 391kts
08-Aug-18 18:08 41.207611 -112.653013 314 21074ft 406kts
08-Aug-18 18:09 41.286931 -112.763445 314 22945ft 419kts
08-Aug-18 18:10 41.368181 -112.877443 314 24610ft 430kts
08-Aug-18 18:11 41.451354 -112.994766 314 26207ft 439kts
08-Aug-18 18:12 41.535915 -113.114542 314 27658ft 447kts
08-Aug-18 18:13 41.621086 -113.235691 314 29434ft 444kts
08-Aug-18 18:14 41.705334 -113.355999 314 30126ft 443kts
08-Aug-18 18:15 41.789111 -113.476093 314 30130ft 440kts
08-Aug-18 18:16 41.872530 -113.596108 314 30129ft 440kts
08-Aug-18 18:17 41.955890 -113.716481 314 30128ft 439kts
08-Aug-18 18:18 42.038687 -113.836453 314 30127ft 438kts
08-Aug-18 18:19 42.121893 -113.956954 314 30127ft 438kts
08-Aug-18 18:20 42.204751 -114.077689 314 30130ft 438kts
08-Aug-18 18:21 42.286779 -114.199232 312 30132ft 438kts
08-Aug-18 18:22 42.367624 -114.322028 313 30137ft 437kts
08-Aug-18 18:23 42.449606 -114.444353 313 30139ft 437kts
08-Aug-18 18:24 42.529535 -114.567837 311 29750ft 427kts
08-Aug-18 18:25 42.604746 -114.688213 310 27695ft 413kts
08-Aug-18 18:26 42.677829 -114.805856 310 25618ft 402kts
08-Aug-18 18:27 42.750653 -114.919211 314 23572ft 393kts
08-Aug-18 18:28 42.825509 -115.025235 313 21561ft 383kts
08-Aug-18 18:29 42.897900 -115.129557 312 19585ft 374kts
08-Aug-18 18:30 42.968966 -115.232094 312 17762ft 368kts
08-Aug-18 18:31 43.038030 -115.332677 312 15981ft 359kts
08-Aug-18 18:32 43.105265 -115.431122 312 14267ft 349kts
08-Aug-18 18:33 43.169775 -115.525541 313 12632ft 323kts
08-Aug-18 18:34 43.229018 -115.612545 312 11140ft 309kts
08-Aug-18 18:35 43.286461 -115.695193 316 9781ft 286kts
08-Aug-18 18:36 43.344165 -115.768563 316 8697ft 278kts
08-Aug-18 18:37 43.397419 -115.837072 316 8126ft 244kts
08-Aug-18 18:38 43.445719 -115.899555 316 7041ft 221kts
08-Aug-18 18:39 43.477373 -115.962486 293 6259ft 184kts
08-Aug-18 18:40 43.496998 -116.023004 295 5854ft 159kts
08-Aug-18 18:41 43.516277 -116.079166 295 4901ft 162kts
08-Aug-18 18:42 43.535437 -116.134953 295 3980ft 164kts
08-Aug-18 18:43 43.554232 -116.190162 294 3088ft 155kts
08-Aug-18 18:44 43.566263 -116.224249 23 2842ft 0kts
08-Aug-18 18:45 43.566264 -116.224248 23 2842ft 0kts
08-Aug-18 18:46 43.566341 -116.224200 24 2842ft 0kts
08-Aug-18 18:47 43.566342 -116.224200 24 2842ft 0kts
08-Aug-18 18:48 43.566743 -116.221892 116 2842ft 18kts
08-Aug-18 18:49 43.565456 -116.218729 125 2842ft 0kts
08-Aug-18 18:50 43.567250 -116.218385 268 2842ft 0kts
08-Aug-18 18:51 43.567250 -116.218386 268 2842ft 0kts
08-Aug-18 18:52 43.567250 -116.218386 268 2842ft 0kts
08-Aug-18 18:53 43.567250 -116.218386 268 2842ft 0kts
08-Aug-18 18:54 43.567250 -116.218386 268 2842ft 0kts
08-Aug-18 18:55 43.567250 -116.218386 268 2842ft 0kts
08-Aug-18 18:56 43.567250 -116.218386 268 2842ft 0kts
08-Aug-18 18:57 43.567250 -116.218386 268 2842ft 0kts
08-Aug-18 18:58 43.567250 -116.218386 268 2842ft 0kts
08-Aug-18 18:59 43.567250 -116.218386 268 2842ft 0kts

Navigation Log

Ident Type
Flight plan parsing failed, navigation log unavailable